createdAt,value
2018-09-04T00:00:12.615Z,96.99
2018-09-04T00:02:39.898Z,97.17
2018-09-04T00:05:07.418Z,96.80
2018-09-04T00:07:34.667Z,97.05
2018-09-04T00:10:02.492Z,96.86
2018-09-04T00:12:29.807Z,96.67
2018-09-04T00:14:57.064Z,96.64
2018-09-04T00:17:24.429Z,96.28
2018-09-04T00:22:41.831Z,96.14
2018-09-04T00:25:09.129Z,96.12
2018-09-04T00:27:36.428Z,95.71
2018-09-04T00:30:04.123Z,95.51
2018-09-04T00:32:31.703Z,95.70
2018-09-04T00:34:59.013Z,95.57
2018-09-04T00:37:26.354Z,95.36
2018-09-04T00:39:53.666Z,95.54
2018-09-04T00:42:20.934Z,95.65
2018-09-04T00:44:48.192Z,95.65
2018-09-04T00:47:15.463Z,96.38
2018-09-04T00:49:42.821Z,95.97
2018-09-04T00:52:10.166Z,96.18
2018-09-04T00:54:37.431Z,96.20
2018-09-04T00:57:04.826Z,96.30
2018-09-04T00:59:32.088Z,96.56
2018-09-04T01:01:59.505Z,96.72
2018-09-04T01:04:27.028Z,96.50
2018-09-04T01:06:54.429Z,96.56
2018-09-04T01:09:22.600Z,96.93
2018-09-04T01:11:50.087Z,96.89
2018-09-04T01:14:17.348Z,96.93
2018-09-04T01:16:44.883Z,96.98
2018-09-04T01:19:12.421Z,96.87
2018-09-04T01:21:39.723Z,96.45
2018-09-04T01:24:08.434Z,96.75
2018-09-04T01:26:35.935Z,96.91
2018-09-04T01:29:03.471Z,96.80
2018-09-04T01:31:30.741Z,96.70
2018-09-04T01:33:58.399Z,96.56
2018-09-04T01:36:25.620Z,96.75
2018-09-04T01:38:52.895Z,96.77
2018-09-04T01:41:20.122Z,96.62
2018-09-04T01:43:47.454Z,96.75
2018-09-04T01:46:14.671Z,96.62
2018-09-04T01:48:41.912Z,96.55
2018-09-04T01:51:09.257Z,96.71
2018-09-04T01:53:36.510Z,96.70
2018-09-04T01:56:03.737Z,96.54
2018-09-04T01:58:30.977Z,96.55
2018-09-04T02:00:58.198Z,96.50
2018-09-04T02:03:25.473Z,96.43
2018-09-04T02:05:52.716Z,96.43
2018-09-04T02:08:19.985Z,96.45
2018-09-04T02:10:47.284Z,96.25
2018-09-04T02:13:14.580Z,96.26
2018-09-04T02:15:41.849Z,96.02
2018-09-04T02:18:09.494Z,95.99
2018-09-04T02:20:36.875Z,95.94
2018-09-04T02:23:04.324Z,95.72
2018-09-04T02:25:31.597Z,95.53
2018-09-04T02:27:58.925Z,95.73
2018-09-04T02:30:26.194Z,95.61
2018-09-04T02:32:53.534Z,95.57
2018-09-04T02:35:20.830Z,95.62
2018-09-04T02:37:48.122Z,95.46
2018-09-04T02:40:15.401Z,95.62
2018-09-04T02:42:42.671Z,95.72
2018-09-04T02:45:09.979Z,95.48
2018-09-04T02:47:37.274Z,95.93
2018-09-04T02:50:04.651Z,95.71
2018-09-04T02:52:31.978Z,96.00
2018-09-04T02:54:59.509Z,96.11
2018-09-04T02:57:26.976Z,96.24
2018-09-04T02:59:54.217Z,96.04
2018-09-04T03:02:21.471Z,96.24
2018-09-04T03:04:48.711Z,96.26
2018-09-04T03:07:15.971Z,96.59
2018-09-04T03:09:43.287Z,96.96
2018-09-04T03:12:10.529Z,96.63
2018-09-04T03:14:37.764Z,97.15
2018-09-04T03:17:05.022Z,96.89
2018-09-04T03:19:33.759Z,96.95
2018-09-04T03:22:02.326Z,97.12
2018-09-04T03:24:30.486Z,97.01
2018-09-04T03:26:57.774Z,97.21
2018-09-04T03:29:25.042Z,97.75
2018-09-04T03:31:52.284Z,97.38
2018-09-04T03:34:19.562Z,97.39
2018-09-04T03:36:46.860Z,97.60
2018-09-04T03:39:14.334Z,97.79
2018-09-04T03:41:41.574Z,97.63
2018-09-04T03:44:08.851Z,97.51
2018-09-04T03:46:36.117Z,97.42
2018-09-04T03:49:03.409Z,97.23
2018-09-04T03:51:30.652Z,97.17
2018-09-04T03:53:57.930Z,96.96
2018-09-04T03:56:25.155Z,97.18
2018-09-04T03:58:52.419Z,97.10
2018-09-04T04:01:19.692Z,97.21
2018-09-04T04:03:46.980Z,97.14
2018-09-04T04:06:14.255Z,97.30
2018-09-04T04:08:43.728Z,97.33
2018-09-04T04:11:11.692Z,97.30
2018-09-04T04:13:38.956Z,97.48
2018-09-04T04:16:06.847Z,97.53
2018-09-04T04:18:34.150Z,97.40
2018-09-04T04:21:01.878Z,97.11
2018-09-04T04:23:29.922Z,97.47
2018-09-04T04:25:58.957Z,97.04
2018-09-04T04:28:26.376Z,97.12
2018-09-04T04:30:53.688Z,97.13
2018-09-04T04:33:21.339Z,97.10
2018-09-04T04:35:48.712Z,97.03
2018-09-04T04:38:16.140Z,97.32
2018-09-04T04:40:43.626Z,97.37
2018-09-04T04:43:11.171Z,97.33
2018-09-04T04:45:38.994Z,97.27
2018-09-04T04:48:06.487Z,97.79
2018-09-04T04:50:34.268Z,97.82
2018-09-04T04:53:01.668Z,97.94
2018-09-04T04:55:29.153Z,97.40
2018-09-04T04:58:08.766Z,97.46
2018-09-04T05:00:36.252Z,97.48
2018-09-04T05:03:03.911Z,97.71
2018-09-04T05:05:31.415Z,97.80
2018-09-04T05:07:58.818Z,97.44
2018-09-04T05:10:27.371Z,97.53
2018-09-04T05:12:55.410Z,97.79
2018-09-04T05:15:22.850Z,97.66
2018-09-04T05:17:50.243Z,97.16
2018-09-04T05:20:22.248Z,97.14
2018-09-04T05:22:49.726Z,96.72
2018-09-04T05:25:18.470Z,96.67
2018-09-04T05:27:45.995Z,96.24
2018-09-04T05:30:13.533Z,96.61
2018-09-04T05:32:45.764Z,96.19
2018-09-04T05:35:14.307Z,96.47
2018-09-04T05:37:42.504Z,95.89
2018-09-04T05:40:10.043Z,96.10
2018-09-04T05:42:43.792Z,95.92
2018-09-04T05:45:11.703Z,95.73
2018-09-04T05:47:40.124Z,95.41
2018-09-04T05:50:08.600Z,94.88
2018-09-04T05:52:36.357Z,94.32
2018-09-04T05:55:04.115Z,93.79
2018-09-04T05:57:32.196Z,93.44
2018-09-04T06:00:00.480Z,93.32
2018-09-04T06:02:29.633Z,92.98
2018-09-04T06:04:57.037Z,92.05
2018-09-04T06:07:24.539Z,90.96
2018-09-04T06:09:52.048Z,90.96
2018-09-04T06:12:19.434Z,90.84
2018-09-04T06:14:46.945Z,90.42
2018-09-04T06:17:14.475Z,90.34
2018-09-04T06:19:42.007Z,89.95
2018-09-04T06:22:09.455Z,89.67
2018-09-04T06:24:36.888Z,88.50
2018-09-04T06:27:04.851Z,87.63
2018-09-04T06:29:32.533Z,85.98
2018-09-04T06:31:59.908Z,85.95
2018-09-04T06:34:27.336Z,85.62
2018-09-04T06:36:54.811Z,84.85
2018-09-04T06:39:22.362Z,85.25
2018-09-04T06:41:49.855Z,84.65
2018-09-04T06:44:17.366Z,84.20
2018-09-04T06:46:44.802Z,84.29
2018-09-04T06:49:13.993Z,83.93
2018-09-04T06:51:42.845Z,82.58
2018-09-04T06:54:10.369Z,81.63
2018-09-04T06:56:39.912Z,81.70
2018-09-04T06:59:08.698Z,81.64
2018-09-04T07:01:36.800Z,80.47
2018-09-04T07:04:04.564Z,81.05
2018-09-04T07:06:35.862Z,79.95
2018-09-04T07:09:04.212Z,79.25
2018-09-04T07:11:31.560Z,79.37
2018-09-04T07:13:58.891Z,78.73
2018-09-04T07:16:26.286Z,76.29
2018-09-04T07:18:53.725Z,75.27
2018-09-04T07:21:21.199Z,74.87
2018-09-04T07:23:49.027Z,73.40
2018-09-04T07:26:17.391Z,72.27
2018-09-04T07:28:44.884Z,71.69
2018-09-04T07:31:13.013Z,70.04
2018-09-04T07:33:40.392Z,69.86
2018-09-04T07:36:07.856Z,71.24
2018-09-04T07:38:35.296Z,72.86
2018-09-04T07:41:02.827Z,74.22
2018-09-04T07:43:30.449Z,74.24
2018-09-04T07:45:57.872Z,73.07
2018-09-04T07:48:25.919Z,71.98
2018-09-04T07:50:53.356Z,70.94
2018-09-04T07:53:20.740Z,68.46
2018-09-04T07:55:48.141Z,67.16
2018-09-04T07:58:16.409Z,66.08
2018-09-04T08:00:43.936Z,66.18
2018-09-04T08:03:11.333Z,66.21
2018-09-04T08:05:54.304Z,64.46
2018-09-04T08:08:36.969Z,63.06
2018-09-04T08:11:20.548Z,62.10
2018-09-04T08:13:55.013Z,61.39
2018-09-04T08:16:22.488Z,60.77
2018-09-04T08:18:50.620Z,60.37
2018-09-04T08:21:18.098Z,59.94
2018-09-04T08:23:45.481Z,59.22
2018-09-04T08:26:13.514Z,58.00
2018-09-04T08:28:42.722Z,57.38
2018-09-04T08:31:11.836Z,57.31
2018-09-04T08:33:39.737Z,57.43
2018-09-04T08:36:09.125Z,56.93
2018-09-04T08:38:42.118Z,55.63
2018-09-04T08:41:09.674Z,57.30
2018-09-04T08:43:37.264Z,56.25
2018-09-04T08:46:04.955Z,56.50
2018-09-04T08:48:33.001Z,55.57
2018-09-04T08:51:10.794Z,55.10
2018-09-04T08:53:49.919Z,55.41
2018-09-04T08:56:28.626Z,53.19
2018-09-04T08:58:57.084Z,53.65
2018-09-04T09:01:24.530Z,52.44
2018-09-04T09:03:52.290Z,52.45
2018-09-04T09:06:19.534Z,55.07
2018-09-04T09:08:47.463Z,51.92
2018-09-04T09:11:15.185Z,52.33
2018-09-04T09:13:42.654Z,51.32
2018-09-04T09:16:13.549Z,50.79
2018-09-04T09:18:40.957Z,49.65
2018-09-04T09:21:08.917Z,50.97
2018-09-04T09:23:36.331Z,49.91
2018-09-04T09:26:03.863Z,51.40
2018-09-04T09:28:31.445Z,51.43
2018-09-04T09:30:58.805Z,51.60
2018-09-04T09:33:26.258Z,48.67
2018-09-04T09:35:53.642Z,48.84
2018-09-04T09:38:21.140Z,49.33
2018-09-04T09:40:49.194Z,50.21
2018-09-04T09:43:17.178Z,50.03
2018-09-04T09:45:44.511Z,50.06
2018-09-04T09:48:12.102Z,48.22
2018-09-04T09:50:40.478Z,47.41
2018-09-04T09:53:08.019Z,49.38
2018-09-04T09:55:35.304Z,48.17
2018-09-04T09:58:02.769Z,49.85
2018-09-04T10:00:32.976Z,48.53
2018-09-04T10:03:09.685Z,47.98
2018-09-04T10:05:37.397Z,48.46
2018-09-04T10:08:05.349Z,47.41
2018-09-04T10:10:32.814Z,48.39
2018-09-04T10:13:00.300Z,47.11
2018-09-04T10:15:28.949Z,47.54
2018-09-04T10:17:56.419Z,47.58
2018-09-04T10:20:23.879Z,47.14
2018-09-04T10:22:52.869Z,46.76
2018-09-04T10:25:20.231Z,46.06
2018-09-04T10:27:48.728Z,46.35
2018-09-04T10:30:17.936Z,47.60
2018-09-04T10:32:52.465Z,47.81
2018-09-04T10:35:20.931Z,47.71
2018-09-04T10:37:48.588Z,47.11
2018-09-04T10:40:21.420Z,46.44
2018-09-04T10:42:49.379Z,45.97
2018-09-04T10:45:22.393Z,44.99
2018-09-04T10:47:52.677Z,44.43
2018-09-04T10:50:21.674Z,44.51
2018-09-04T10:52:51.682Z,44.99
2018-09-04T10:55:19.236Z,44.75
2018-09-04T10:57:46.879Z,44.73
2018-09-04T11:00:15.890Z,44.12
2018-09-04T11:02:43.339Z,45.78
2018-09-04T11:05:10.774Z,46.69
2018-09-04T11:07:38.260Z,45.47
2018-09-04T11:10:06.189Z,46.11
2018-09-04T11:12:33.705Z,42.40
2018-09-04T11:15:01.282Z,43.39
2018-09-04T11:17:28.992Z,44.76
2018-09-04T11:20:03.161Z,46.13
2018-09-04T11:22:30.530Z,45.54
2018-09-04T11:24:58.228Z,45.31
2018-09-04T11:27:26.228Z,44.60
2018-09-04T11:29:53.953Z,44.23
2018-09-04T11:32:22.261Z,44.12
2018-09-04T11:34:49.943Z,44.22
2018-09-04T11:37:17.671Z,43.84
2018-09-04T11:39:45.150Z,44.79
2018-09-04T11:42:13.684Z,45.07
2018-09-04T11:44:42.851Z,44.58
2018-09-04T11:47:12.754Z,43.30
2018-09-04T11:49:40.887Z,44.02
2018-09-04T11:52:09.252Z,42.68
2018-09-04T11:54:36.947Z,43.84
2018-09-04T11:57:05.042Z,42.67
2018-09-04T11:59:37.863Z,42.66
2018-09-04T12:02:06.818Z,41.40
2018-09-04T12:04:34.666Z,42.75
2018-09-04T12:07:02.374Z,42.82
2018-09-04T12:09:29.922Z,41.86
2018-09-04T12:11:57.565Z,41.92
2018-09-04T12:14:30.751Z,44.12
2018-09-04T12:16:58.257Z,45.89
2018-09-04T12:19:27.330Z,45.47
2018-09-04T12:21:54.920Z,42.92
2018-09-04T12:24:22.518Z,42.13
2018-09-04T12:26:49.895Z,44.54
2018-09-04T12:29:17.359Z,45.27
2018-09-04T12:31:45.588Z,44.01
2018-09-04T12:34:13.016Z,44.78
2018-09-04T12:36:40.651Z,46.18
2018-09-04T12:39:08.211Z,45.88
2018-09-04T12:41:37.793Z,44.25
2018-09-04T12:44:05.336Z,42.55
2018-09-04T12:46:34.737Z,41.33
2018-09-04T12:49:02.512Z,40.23
2018-09-04T12:51:30.082Z,40.35
2018-09-04T12:53:57.608Z,39.98
2018-09-04T12:56:25.114Z,41.33
2018-09-04T12:58:52.669Z,42.35
2018-09-04T13:01:21.159Z,42.75
2018-09-04T13:03:48.528Z,42.08
2018-09-04T13:06:16.139Z,42.59
2018-09-04T13:08:43.583Z,41.79
2018-09-04T13:11:11.358Z,41.77
2018-09-04T13:13:40.564Z,43.39
2018-09-04T13:16:09.601Z,44.08
2018-09-04T13:18:38.497Z,43.09
2018-09-04T13:21:06.170Z,42.10
2018-09-04T13:23:34.794Z,43.10
2018-09-04T13:26:02.746Z,42.40
2018-09-04T13:28:31.084Z,42.00
2018-09-04T13:30:59.251Z,38.55
2018-09-04T13:33:27.528Z,38.81
2018-09-04T13:35:55.580Z,37.77
2018-09-04T13:38:26.191Z,37.84
2018-09-04T13:40:59.365Z,38.28
2018-09-04T13:43:26.814Z,38.20
2018-09-04T13:45:54.328Z,38.71
2018-09-04T13:48:27.808Z,39.14
2018-09-04T13:50:55.538Z,40.65
2018-09-04T13:53:23.882Z,39.26
2018-09-04T13:55:51.445Z,40.15
2018-09-04T13:58:19.336Z,39.46
2018-09-04T14:00:46.877Z,39.54
2018-09-04T14:03:14.285Z,39.16
2018-09-04T14:05:41.726Z,38.76
2018-09-04T14:08:09.827Z,39.83
2018-09-04T14:10:37.915Z,38.69
2018-09-04T14:13:05.635Z,38.51
2018-09-04T14:15:33.698Z,39.36
2018-09-04T14:18:01.136Z,39.93
2018-09-04T14:20:28.612Z,39.86
2018-09-04T14:22:56.799Z,40.61
2018-09-04T14:25:24.367Z,40.03
2018-09-04T14:27:52.135Z,40.37
2018-09-04T14:30:19.814Z,40.22
2018-09-04T14:32:47.893Z,40.91
2018-09-04T14:35:15.952Z,41.37
2018-09-04T14:37:43.375Z,42.46
2018-09-04T14:40:10.941Z,41.37
2018-09-04T14:42:39.022Z,41.53
2018-09-04T14:45:07.652Z,41.24
2018-09-04T14:47:37.316Z,39.94
2018-09-04T14:50:06.107Z,40.26
2018-09-04T14:52:34.401Z,40.17
2018-09-04T14:55:01.900Z,41.13
2018-09-04T14:57:32.268Z,41.77
2018-09-04T14:59:59.792Z,40.73
2018-09-04T15:02:38.873Z,39.50
2018-09-04T15:05:06.847Z,40.78
2018-09-04T15:07:36.664Z,39.91
2018-09-04T15:10:08.635Z,39.27
2018-09-04T15:12:41.003Z,39.30
2018-09-04T15:19:03.556Z,39.79
2018-09-04T15:21:36.224Z,39.63
2018-09-04T15:24:06.413Z,39.46
2018-09-04T15:26:34.024Z,40.25
2018-09-04T15:29:02.824Z,39.32
2018-09-04T15:31:30.419Z,40.20
2018-09-04T15:33:57.858Z,40.29
2018-09-04T15:36:25.425Z,40.68
2018-09-04T15:38:53.528Z,40.99
2018-09-04T15:41:21.679Z,41.41
2018-09-04T15:43:49.105Z,41.27
2018-09-04T15:46:16.630Z,41.67
2018-09-04T15:49:51.234Z,42.02
2018-09-04T15:52:18.729Z,42.31
2018-09-04T15:54:46.150Z,42.07
2018-09-04T15:57:14.127Z,42.12
2018-09-04T15:59:41.490Z,41.52
2018-09-04T16:02:09.054Z,42.94
2018-09-04T16:04:36.949Z,42.90
2018-09-04T16:07:04.394Z,41.47
2018-09-04T16:09:31.884Z,42.73
2018-09-04T16:11:59.205Z,42.96
2018-09-04T16:14:26.675Z,42.54
2018-09-04T16:16:54.937Z,43.19
2018-09-04T16:19:22.535Z,42.83
2018-09-04T16:21:50.893Z,43.69
2018-09-04T16:24:18.235Z,42.64
2018-09-04T16:29:39.147Z,43.25
2018-09-04T16:35:22.978Z,43.16
2018-09-04T16:38:01.410Z,43.45
2018-09-04T16:40:39.443Z,43.79
2018-09-04T16:43:10.599Z,43.56
2018-09-04T16:45:40.705Z,43.96
2018-09-04T16:48:08.169Z,43.72
2018-09-04T16:50:42.889Z,43.71
2018-09-04T16:55:54.935Z,44.16
2018-09-04T16:58:22.707Z,44.27
2018-09-04T17:01:02.505Z,45.42
2018-09-04T17:03:40.970Z,45.04
2018-09-04T17:06:17.191Z,45.92
2018-09-04T17:08:44.908Z,46.08
2018-09-04T17:13:50.261Z,46.68
2018-09-04T17:16:19.636Z,46.99
2018-09-04T17:18:47.990Z,47.63
2018-09-04T17:21:21.443Z,48.70
2018-09-04T17:23:49.227Z,52.65
2018-09-04T17:26:17.944Z,53.82
2018-09-04T17:28:47.716Z,55.09
2018-09-04T17:31:15.183Z,55.50
2018-09-04T17:33:45.384Z,55.93
2018-09-04T17:36:13.165Z,56.37
2018-09-04T17:38:40.636Z,58.81
2018-09-04T17:41:15.289Z,59.42
2018-09-04T17:43:46.155Z,60.36
2018-09-04T17:46:14.389Z,60.28
2018-09-04T17:48:42.920Z,60.68
2018-09-04T17:51:12.005Z,61.33
2018-09-04T17:53:41.829Z,61.83
2018-09-04T17:56:10.132Z,63.43
2018-09-04T17:58:39.267Z,64.36
2018-09-04T18:01:07.854Z,63.86
2018-09-04T18:03:35.666Z,64.37
2018-09-04T18:06:04.031Z,64.64
2018-09-04T18:08:31.663Z,65.52
2018-09-04T18:11:03.676Z,66.08
2018-09-04T18:13:31.168Z,65.29
2018-09-04T18:15:58.662Z,65.54
2018-09-04T18:18:26.050Z,64.77
2018-09-04T18:20:53.650Z,65.22
2018-09-04T18:23:21.380Z,65.65
2018-09-04T18:25:48.841Z,65.26
2018-09-04T18:28:16.340Z,66.05
2018-09-04T18:30:44.851Z,65.84
2018-09-04T18:33:12.434Z,66.38
2018-09-04T18:35:41.478Z,66.91
2018-09-04T18:38:11.418Z,67.16
2018-09-04T18:40:40.151Z,66.77
2018-09-04T18:43:08.758Z,66.50
2018-09-04T18:45:49.554Z,67.42
2018-09-04T18:48:19.070Z,67.43
2018-09-04T18:50:52.735Z,67.92
2018-09-04T18:53:20.183Z,65.29
2018-09-04T18:55:51.085Z,63.92
2018-09-04T18:58:19.028Z,64.46
2018-09-04T19:00:46.901Z,64.78
2018-09-04T19:03:15.532Z,65.22
2018-09-04T19:05:47.058Z,64.98
2018-09-04T19:08:16.627Z,66.02
2018-09-04T19:10:44.365Z,66.84
2018-09-04T19:13:11.890Z,68.07
2018-09-04T19:15:41.858Z,69.04
2018-09-04T19:18:09.998Z,69.18
2018-09-04T19:20:40.966Z,69.83
2018-09-04T19:23:10.420Z,69.49
2018-09-04T19:25:39.602Z,69.97
2018-09-04T19:28:08.561Z,68.98
2018-09-04T19:30:36.416Z,68.17
2018-09-04T19:33:05.050Z,67.69
2018-09-04T19:35:34.779Z,68.35
2018-09-04T19:38:02.176Z,68.99
2018-09-04T19:40:29.510Z,69.72
2018-09-04T19:42:56.956Z,69.77
2018-09-04T19:45:24.346Z,68.81
2018-09-04T19:47:51.772Z,69.48
2018-09-04T19:50:20.277Z,69.81
2018-09-04T19:52:47.601Z,70.46
2018-09-04T19:55:15.296Z,70.01
2018-09-04T19:57:42.716Z,70.79
2018-09-04T20:00:10.579Z,70.64
2018-09-04T20:02:38.490Z,70.67
2018-09-04T20:05:07.253Z,70.92
2018-09-04T20:07:34.609Z,70.86
2018-09-04T20:10:02.832Z,69.77
2018-09-04T20:12:30.114Z,69.58
2018-09-04T20:14:57.470Z,68.12
2018-09-04T20:17:24.912Z,67.54
2018-09-04T20:19:52.309Z,66.71
2018-09-04T20:22:19.669Z,65.57
2018-09-04T20:24:46.981Z,65.15
2018-09-04T20:27:14.435Z,65.23
2018-09-04T20:29:41.787Z,65.14
2018-09-04T20:32:09.007Z,65.68
2018-09-04T20:34:36.530Z,65.85
2018-09-04T20:37:03.865Z,67.21
2018-09-04T20:39:31.132Z,68.70
2018-09-04T20:41:58.441Z,69.09
2018-09-04T20:44:25.745Z,69.31
2018-09-04T20:46:53.040Z,69.07
2018-09-04T20:49:20.313Z,69.36
2018-09-04T20:51:48.381Z,69.58
2018-09-04T20:54:15.751Z,66.93
2018-09-04T20:56:50.070Z,67.95
2018-09-04T20:59:28.865Z,66.74
2018-09-04T21:02:07.655Z,68.54
2018-09-04T21:04:46.330Z,69.58
2018-09-04T21:09:25.077Z,68.76
2018-09-04T21:11:52.360Z,69.17
2018-09-04T21:14:19.706Z,69.04
2018-09-04T21:16:47.016Z,68.97
2018-09-04T21:19:14.341Z,68.86
2018-09-04T21:21:41.670Z,68.94
2018-09-04T21:24:08.968Z,68.95
2018-09-04T21:26:36.230Z,68.82
2018-09-04T21:29:03.701Z,69.30
2018-09-04T21:31:31.081Z,69.59
2018-09-04T21:33:58.285Z,69.78
2018-09-04T21:36:25.570Z,69.87
2018-09-04T21:38:52.838Z,68.92
2018-09-04T21:41:20.100Z,69.63
2018-09-04T21:43:47.407Z,69.57
2018-09-04T21:46:14.639Z,69.86
2018-09-04T21:48:41.861Z,69.55
2018-09-04T21:51:09.464Z,70.71
2018-09-04T21:53:36.765Z,70.60
2018-09-04T21:56:04.311Z,70.58
2018-09-04T21:58:31.542Z,71.42
2018-09-04T22:00:58.825Z,72.08
2018-09-04T22:03:35.086Z,72.43
2018-09-04T22:06:02.358Z,72.94
2018-09-04T22:08:30.448Z,73.71
2018-09-04T22:10:57.708Z,73.89
2018-09-04T22:13:25.034Z,74.10
2018-09-04T22:15:52.315Z,74.10
2018-09-04T22:18:19.585Z,73.35
2018-09-04T22:20:46.978Z,73.95
2018-09-04T22:23:14.228Z,73.48
2018-09-04T22:25:41.482Z,74.34
2018-09-04T22:28:08.906Z,74.13
2018-09-04T22:30:36.158Z,74.54
2018-09-04T22:33:03.442Z,74.29
2018-09-04T22:35:30.708Z,73.84
2018-09-04T22:37:59.003Z,74.45
2018-09-04T22:40:26.279Z,74.70
2018-09-04T22:42:53.542Z,75.29
2018-09-04T22:45:20.935Z,74.98
2018-09-04T22:47:48.256Z,74.68
2018-09-04T22:50:21.226Z,75.15
2018-09-04T22:52:48.543Z,75.86
2018-09-04T22:55:15.800Z,75.73
2018-09-04T22:57:43.907Z,75.74
2018-09-04T23:00:12.158Z,76.01
2018-09-04T23:02:40.288Z,75.75
2018-09-04T23:05:07.590Z,76.53
2018-09-04T23:07:34.872Z,75.81
2018-09-04T23:10:02.137Z,75.81
2018-09-04T23:12:29.409Z,75.67
2018-09-04T23:14:56.672Z,76.19
2018-09-04T23:17:23.972Z,75.89
2018-09-04T23:19:51.257Z,75.61
2018-09-04T23:22:18.517Z,75.93
2018-09-04T23:24:45.810Z,76.44
2018-09-04T23:27:13.103Z,75.60
2018-09-04T23:29:40.384Z,76.27
2018-09-04T23:32:07.648Z,75.97
2018-09-04T23:34:35.399Z,76.78
2018-09-04T23:37:02.650Z,76.69
2018-09-04T23:39:30.037Z,77.43
2018-09-04T23:41:57.273Z,76.51
2018-09-04T23:44:24.573Z,76.64
2018-09-04T23:46:51.928Z,77.03
2018-09-04T23:49:19.234Z,77.07
2018-09-04T23:51:46.503Z,77.48
2018-09-04T23:54:13.776Z,77.52
2018-09-04T23:56:41.015Z,78.27
2018-09-04T23:59:08.362Z,78.04
